sensor_id;sensor_type;location;lat;lon;timestamp;temperature;humidity
13808;DHT22;40769;51.512;5.494;2023-07-31T00:00:32;18.30;99.90
13808;DHT22;40769;51.512;5.494;2023-07-31T00:02:58;18.30;99.90
13808;DHT22;40769;51.512;5.494;2023-07-31T00:05:23;18.30;99.90
13808;DHT22;40769;51.512;5.494;2023-07-31T00:07:49;18.30;99.90
13808;DHT22;40769;51.512;5.494;2023-07-31T00:10:15;18.30;99.90
13808;DHT22;40769;51.512;5.494;2023-07-31T00:12:43;18.30;99.90
13808;DHT22;40769;51.512;5.494;2023-07-31T00:15:09;18.30;99.90
13808;DHT22;40769;51.512;5.494;2023-07-31T00:17:35;18.30;99.90
13808;DHT22;40769;51.512;5.494;2023-07-31T00:20:01;18.30;99.90
13808;DHT22;40769;51.512;5.494;2023-07-31T00:22:27;18.20;99.90
13808;DHT22;40769;51.512;5.494;2023-07-31T00:24:53;18.20;99.90
13808;DHT22;40769;51.512;5.494;2023-07-31T00:27:19;18.20;99.90
13808;DHT22;40769;51.512;5.494;2023-07-31T00:29:44;18.20;99.90
13808;DHT22;40769;51.512;5.494;2023-07-31T00:32:10;18.20;99.90
13808;DHT22;40769;51.512;5.494;2023-07-31T00:34:35;18.20;99.90
13808;DHT22;40769;51.512;5.494;2023-07-31T00:37:01;18.20;99.90
13808;DHT22;40769;51.512;5.494;2023-07-31T00:39:27;18.20;99.90
13808;DHT22;40769;51.512;5.494;2023-07-31T00:41:52;18.20;99.90
13808;DHT22;40769;51.512;5.494;2023-07-31T00:44:18;18.20;99.90
13808;DHT22;40769;51.512;5.494;2023-07-31T00:46:44;18.20;99.90
13808;DHT22;40769;51.512;5.494;2023-07-31T00:49:11;18.20;99.90
13808;DHT22;40769;51.512;5.494;2023-07-31T00:51:37;18.30;99.90
13808;DHT22;40769;51.512;5.494;2023-07-31T00:54:06;18.20;99.90
13808;DHT22;40769;51.512;5.494;2023-07-31T00:56:32;18.30;99.90
13808;DHT22;40769;51.512;5.494;2023-07-31T00:58:58;18.30;99.90
13808;DHT22;40769;51.512;5.494;2023-07-31T01:01:24;18.30;99.90
13808;DHT22;40769;51.512;5.494;2023-07-31T01:03:50;18.30;99.90
13808;DHT22;40769;51.512;5.494;2023-07-31T01:06:36;18.30;99.90
13808;DHT22;40769;51.512;5.494;2023-07-31T01:09:38;18.30;99.90
13808;DHT22;40769;51.512;5.494;2023-07-31T01:12:07;18.30;99.90
13808;DHT22;40769;51.512;5.494;2023-07-31T01:14:34;18.30;99.90
13808;DHT22;40769;51.512;5.494;2023-07-31T01:17:00;18.30;99.90
13808;DHT22;40769;51.512;5.494;2023-07-31T01:19:26;18.20;99.90
13808;DHT22;40769;51.512;5.494;2023-07-31T01:30:26;18.30;99.90
13808;DHT22;40769;51.512;5.494;2023-07-31T01:32:54;18.30;99.90
13808;DHT22;40769;51.512;5.494;2023-07-31T01:35:21;18.20;99.90
13808;DHT22;40769;51.512;5.494;2023-07-31T01:37:47;18.30;99.90
13808;DHT22;40769;51.512;5.494;2023-07-31T01:40:12;18.30;99.90
13808;DHT22;40769;51.512;5.494;2023-07-31T01:42:38;18.30;99.90
13808;DHT22;40769;51.512;5.494;2023-07-31T01:45:04;18.30;99.90
13808;DHT22;40769;51.512;5.494;2023-07-31T01:47:30;18.30;99.90
13808;DHT22;40769;51.512;5.494;2023-07-31T01:49:56;18.30;99.90
13808;DHT22;40769;51.512;5.494;2023-07-31T01:52:21;18.30;99.90
13808;DHT22;40769;51.512;5.494;2023-07-31T01:54:47;18.30;99.90
13808;DHT22;40769;51.512;5.494;2023-07-31T01:57:12;18.30;99.90
13808;DHT22;40769;51.512;5.494;2023-07-31T01:59:38;18.20;99.90
13808;DHT22;40769;51.512;5.494;2023-07-31T02:02:07;18.20;99.90
13808;DHT22;40769;51.512;5.494;2023-07-31T02:04:33;18.20;99.90
13808;DHT22;40769;51.512;5.494;2023-07-31T02:06:59;18.20;99.90
13808;DHT22;40769;51.512;5.494;2023-07-31T02:09:25;18.20;99.90
13808;DHT22;40769;51.512;5.494;2023-07-31T02:11:51;18.10;99.90
13808;DHT22;40769;51.512;5.494;2023-07-31T02:14:16;18.10;99.90
13808;DHT22;40769;51.512;5.494;2023-07-31T02:16:42;18.20;99.90
13808;DHT22;40769;51.512;5.494;2023-07-31T02:19:08;18.10;99.90
13808;DHT22;40769;51.512;5.494;2023-07-31T02:21:33;18.20;99.90
13808;DHT22;40769;51.512;5.494;2023-07-31T02:23:59;18.20;99.90
13808;DHT22;40769;51.512;5.494;2023-07-31T02:26:25;18.20;99.90
13808;DHT22;40769;51.512;5.494;2023-07-31T02:28:50;18.20;99.90
13808;DHT22;40769;51.512;5.494;2023-07-31T02:31:16;18.10;99.90
13808;DHT22;40769;51.512;5.494;2023-07-31T02:33:42;18.10;99.90
13808;DHT22;40769;51.512;5.494;2023-07-31T02:36:07;18.20;99.90
13808;DHT22;40769;51.512;5.494;2023-07-31T02:38:33;18.20;99.90
13808;DHT22;40769;51.512;5.494;2023-07-31T02:40:58;18.20;99.90
13808;DHT22;40769;51.512;5.494;2023-07-31T02:43:24;18.20;99.90
13808;DHT22;40769;51.512;5.494;2023-07-31T02:45:53;19.20;99.90
13808;DHT22;40769;51.512;5.494;2023-07-31T02:48:19;18.90;99.90
13808;DHT22;40769;51.512;5.494;2023-07-31T02:50:48;18.20;99.90
13808;DHT22;40769;51.512;5.494;2023-07-31T02:53:13;18.20;99.90
13808;DHT22;40769;51.512;5.494;2023-07-31T02:55:40;18.20;99.90
13808;DHT22;40769;51.512;5.494;2023-07-31T02:58:06;18.20;99.90
13808;DHT22;40769;51.512;5.494;2023-07-31T03:00:31;18.20;99.90
13808;DHT22;40769;51.512;5.494;2023-07-31T03:02:57;18.20;99.90
13808;DHT22;40769;51.512;5.494;2023-07-31T03:05:22;18.30;99.90
13808;DHT22;40769;51.512;5.494;2023-07-31T03:07:48;18.20;99.90
13808;DHT22;40769;51.512;5.494;2023-07-31T03:10:14;18.30;99.90
13808;DHT22;40769;51.512;5.494;2023-07-31T03:12:40;18.30;99.90
13808;DHT22;40769;51.512;5.494;2023-07-31T03:15:07;18.30;99.90
13808;DHT22;40769;51.512;5.494;2023-07-31T03:17:33;18.30;99.90
13808;DHT22;40769;51.512;5.494;2023-07-31T03:19:58;18.30;99.90
13808;DHT22;40769;51.512;5.494;2023-07-31T03:22:24;18.30;99.90
13808;DHT22;40769;51.512;5.494;2023-07-31T03:24:49;18.30;99.90
13808;DHT22;40769;51.512;5.494;2023-07-31T03:27:15;18.30;99.90
13808;DHT22;40769;51.512;5.494;2023-07-31T03:29:41;18.30;99.90
13808;DHT22;40769;51.512;5.494;2023-07-31T03:32:06;18.40;99.90
13808;DHT22;40769;51.512;5.494;2023-07-31T03:34:32;18.40;99.90
13808;DHT22;40769;51.512;5.494;2023-07-31T03:36:58;18.40;99.90
13808;DHT22;40769;51.512;5.494;2023-07-31T03:39:24;18.40;99.90
13808;DHT22;40769;51.512;5.494;2023-07-31T03:41:50;18.40;99.90
13808;DHT22;40769;51.512;5.494;2023-07-31T03:44:15;18.40;99.90
13808;DHT22;40769;51.512;5.494;2023-07-31T03:46:41;18.50;99.90
13808;DHT22;40769;51.512;5.494;2023-07-31T03:49:07;18.50;99.90
13808;DHT22;40769;51.512;5.494;2023-07-31T03:51:33;18.50;99.90
13808;DHT22;40769;51.512;5.494;2023-07-31T03:53:58;18.50;99.90
13808;DHT22;40769;51.512;5.494;2023-07-31T03:56:24;18.70;99.90
13808;DHT22;40769;51.512;5.494;2023-07-31T03:58:49;18.60;99.90
13808;DHT22;40769;51.512;5.494;2023-07-31T04:01:15;18.60;99.90
13808;DHT22;40769;51.512;5.494;2023-07-31T04:03:41;18.60;99.90
13808;DHT22;40769;51.512;5.494;2023-07-31T04:06:06;18.70;99.90
13808;DHT22;40769;51.512;5.494;2023-07-31T04:08:33;18.70;99.90
13808;DHT22;40769;51.512;5.494;2023-07-31T04:10:58;18.70;99.90
13808;DHT22;40769;51.512;5.494;2023-07-31T04:13:24;18.80;99.90
13808;DHT22;40769;51.512;5.494;2023-07-31T04:15:52;18.80;99.90
13808;DHT22;40769;51.512;5.494;2023-07-31T04:18:20;18.80;99.90
13808;DHT22;40769;51.512;5.494;2023-07-31T04:20:45;18.90;99.90
13808;DHT22;40769;51.512;5.494;2023-07-31T04:23:11;18.80;99.90
13808;DHT22;40769;51.512;5.494;2023-07-31T04:25:37;18.90;99.90
13808;DHT22;40769;51.512;5.494;2023-07-31T04:28:05;18.90;99.90
13808;DHT22;40769;51.512;5.494;2023-07-31T04:30:31;19.00;99.90
13808;DHT22;40769;51.512;5.494;2023-07-31T04:32:57;19.00;99.90
13808;DHT22;40769;51.512;5.494;2023-07-31T04:35:22;19.00;99.90
13808;DHT22;40769;51.512;5.494;2023-07-31T04:37:48;19.00;99.90
13808;DHT22;40769;51.512;5.494;2023-07-31T04:40:15;19.10;99.90
13808;DHT22;40769;51.512;5.494;2023-07-31T04:42:41;19.10;99.90
13808;DHT22;40769;51.512;5.494;2023-07-31T04:45:08;19.10;99.90
13808;DHT22;40769;51.512;5.494;2023-07-31T04:47:34;19.20;99.90
13808;DHT22;40769;51.512;5.494;2023-07-31T04:49:59;19.20;99.90
13808;DHT22;40769;51.512;5.494;2023-07-31T04:52:25;19.20;99.90
13808;DHT22;40769;51.512;5.494;2023-07-31T04:54:51;19.80;99.90
13808;DHT22;40769;51.512;5.494;2023-07-31T04:57:16;19.30;99.90
13808;DHT22;40769;51.512;5.494;2023-07-31T04:59:42;19.30;99.90
13808;DHT22;40769;51.512;5.494;2023-07-31T05:02:08;19.30;99.90
13808;DHT22;40769;51.512;5.494;2023-07-31T05:04:34;19.30;99.90
13808;DHT22;40769;51.512;5.494;2023-07-31T05:06:59;19.30;99.90
13808;DHT22;40769;51.512;5.494;2023-07-31T05:09:28;19.40;99.90
13808;DHT22;40769;51.512;5.494;2023-07-31T05:11:53;19.40;99.90
13808;DHT22;40769;51.512;5.494;2023-07-31T05:14:19;19.50;99.90
13808;DHT22;40769;51.512;5.494;2023-07-31T05:16:45;19.40;99.90
13808;DHT22;40769;51.512;5.494;2023-07-31T05:19:11;19.40;99.90
13808;DHT22;40769;51.512;5.494;2023-07-31T05:21:37;19.30;99.90
13808;DHT22;40769;51.512;5.494;2023-07-31T05:24:03;19.20;99.90
13808;DHT22;40769;51.512;5.494;2023-07-31T05:26:29;19.10;99.90
13808;DHT22;40769;51.512;5.494;2023-07-31T05:28:54;19.10;99.90
13808;DHT22;40769;51.512;5.494;2023-07-31T05:31:20;19.00;99.90
13808;DHT22;40769;51.512;5.494;2023-07-31T05:33:47;18.90;99.90
13808;DHT22;40769;51.512;5.494;2023-07-31T05:36:15;18.90;99.90
13808;DHT22;40769;51.512;5.494;2023-07-31T05:38:41;18.90;99.90
13808;DHT22;40769;51.512;5.494;2023-07-31T05:41:07;18.80;99.90
13808;DHT22;40769;51.512;5.494;2023-07-31T05:43:33;18.80;99.90
13808;DHT22;40769;51.512;5.494;2023-07-31T05:45:58;18.80;99.90
13808;DHT22;40769;51.512;5.494;2023-07-31T05:48:24;18.70;99.90
13808;DHT22;40769;51.512;5.494;2023-07-31T05:50:50;18.70;99.90
13808;DHT22;40769;51.512;5.494;2023-07-31T05:53:15;18.70;99.90
13808;DHT22;40769;51.512;5.494;2023-07-31T05:55:41;18.70;99.90
13808;DHT22;40769;51.512;5.494;2023-07-31T05:58:07;18.70;99.90
13808;DHT22;40769;51.512;5.494;2023-07-31T06:00:32;18.60;99.90
13808;DHT22;40769;51.512;5.494;2023-07-31T06:02:58;18.60;99.90
13808;DHT22;40769;51.512;5.494;2023-07-31T06:05:24;18.60;99.90
13808;DHT22;40769;51.512;5.494;2023-07-31T06:07:50;18.60;99.90
13808;DHT22;40769;51.512;5.494;2023-07-31T06:10:15;18.60;99.90
13808;DHT22;40769;51.512;5.494;2023-07-31T06:12:41;18.60;99.90
13808;DHT22;40769;51.512;5.494;2023-07-31T06:15:07;18.60;99.90
13808;DHT22;40769;51.512;5.494;2023-07-31T06:17:32;18.60;99.90
13808;DHT22;40769;51.512;5.494;2023-07-31T06:19:58;18.60;99.90
13808;DHT22;40769;51.512;5.494;2023-07-31T06:22:26;18.60;99.90
13808;DHT22;40769;51.512;5.494;2023-07-31T06:24:52;18.60;99.90
13808;DHT22;40769;51.512;5.494;2023-07-31T06:27:18;18.60;99.90
13808;DHT22;40769;51.512;5.494;2023-07-31T06:29:44;18.60;99.90
13808;DHT22;40769;51.512;5.494;2023-07-31T06:32:10;18.60;99.90
13808;DHT22;40769;51.512;5.494;2023-07-31T06:34:35;18.50;99.90
13808;DHT22;40769;51.512;5.494;2023-07-31T06:37:01;18.60;99.90
13808;DHT22;40769;51.512;5.494;2023-07-31T06:39:27;18.60;99.90
13808;DHT22;40769;51.512;5.494;2023-07-31T06:41:52;18.60;99.90
13808;DHT22;40769;51.512;5.494;2023-07-31T06:44:18;18.60;99.90
13808;DHT22;40769;51.512;5.494;2023-07-31T06:46:44;18.70;99.90
13808;DHT22;40769;51.512;5.494;2023-07-31T06:49:09;18.70;99.90
13808;DHT22;40769;51.512;5.494;2023-07-31T06:51:35;18.70;99.90
13808;DHT22;40769;51.512;5.494;2023-07-31T06:54:01;18.70;99.90
13808;DHT22;40769;51.512;5.494;2023-07-31T06:56:28;18.70;99.90
13808;DHT22;40769;51.512;5.494;2023-07-31T06:58:53;18.70;99.90
13808;DHT22;40769;51.512;5.494;2023-07-31T07:01:19;18.70;99.90
13808;DHT22;40769;51.512;5.494;2023-07-31T07:03:45;18.70;99.90
13808;DHT22;40769;51.512;5.494;2023-07-31T07:06:11;18.70;99.90
13808;DHT22;40769;51.512;5.494;2023-07-31T07:08:36;18.70;99.90
13808;DHT22;40769;51.512;5.494;2023-07-31T07:11:02;18.70;99.90
13808;DHT22;40769;51.512;5.494;2023-07-31T07:13:27;18.70;99.90
13808;DHT22;40769;51.512;5.494;2023-07-31T07:15:55;18.70;99.90
13808;DHT22;40769;51.512;5.494;2023-07-31T07:18:21;18.80;99.90
13808;DHT22;40769;51.512;5.494;2023-07-31T07:20:50;18.00;99.90
13808;DHT22;40769;51.512;5.494;2023-07-31T07:23:15;18.90;99.90
13808;DHT22;40769;51.512;5.494;2023-07-31T07:25:42;18.90;99.90
13808;DHT22;40769;51.512;5.494;2023-07-31T07:28:08;18.90;99.90
13808;DHT22;40769;51.512;5.494;2023-07-31T07:30:34;18.90;99.90
13808;DHT22;40769;51.512;5.494;2023-07-31T07:33:00;19.00;99.90
13808;DHT22;40769;51.512;5.494;2023-07-31T07:35:25;19.00;99.90
13808;DHT22;40769;51.512;5.494;2023-07-31T07:37:51;19.00;99.90
13808;DHT22;40769;51.512;5.494;2023-07-31T07:40:17;19.00;99.90
13808;DHT22;40769;51.512;5.494;2023-07-31T07:42:42;19.00;99.90
13808;DHT22;40769;51.512;5.494;2023-07-31T07:45:08;19.00;99.90
13808;DHT22;40769;51.512;5.494;2023-07-31T07:47:34;19.00;99.90
13808;DHT22;40769;51.512;5.494;2023-07-31T07:50:00;19.00;99.90
13808;DHT22;40769;51.512;5.494;2023-07-31T07:52:26;19.00;99.90
13808;DHT22;40769;51.512;5.494;2023-07-31T07:54:51;19.00;99.90
13808;DHT22;40769;51.512;5.494;2023-07-31T07:57:17;19.00;99.90
13808;DHT22;40769;51.512;5.494;2023-07-31T07:59:44;19.00;99.90
13808;DHT22;40769;51.512;5.494;2023-07-31T08:02:09;19.00;99.90
13808;DHT22;40769;51.512;5.494;2023-07-31T08:04:35;19.00;99.90
13808;DHT22;40769;51.512;5.494;2023-07-31T08:07:01;19.10;99.90
13808;DHT22;40769;51.512;5.494;2023-07-31T08:09:26;19.80;99.90
13808;DHT22;40769;51.512;5.494;2023-07-31T08:11:52;19.10;99.90
13808;DHT22;40769;51.512;5.494;2023-07-31T08:14:18;19.10;99.90
13808;DHT22;40769;51.512;5.494;2023-07-31T08:16:44;19.10;99.90
13808;DHT22;40769;51.512;5.494;2023-07-31T08:19:09;19.10;99.90
13808;DHT22;40769;51.512;5.494;2023-07-31T08:21:35;19.10;99.90
13808;DHT22;40769;51.512;5.494;2023-07-31T08:24:00;19.00;99.90
13808;DHT22;40769;51.512;5.494;2023-07-31T08:26:26;19.10;99.90
13808;DHT22;40769;51.512;5.494;2023-07-31T08:28:52;19.00;99.90
13808;DHT22;40769;51.512;5.494;2023-07-31T08:31:18;19.00;99.90
13808;DHT22;40769;51.512;5.494;2023-07-31T08:33:44;19.00;99.90
13808;DHT22;40769;51.512;5.494;2023-07-31T08:36:09;19.00;99.90
13808;DHT22;40769;51.512;5.494;2023-07-31T08:38:35;19.00;99.90
13808;DHT22;40769;51.512;5.494;2023-07-31T08:41:03;19.00;99.90
13808;DHT22;40769;51.512;5.494;2023-07-31T08:43:30;19.00;99.90
13808;DHT22;40769;51.512;5.494;2023-07-31T08:45:56;19.00;99.90
13808;DHT22;40769;51.512;5.494;2023-07-31T08:48:23;19.10;99.90
13808;DHT22;40769;51.512;5.494;2023-07-31T08:50:50;19.10;99.90
13808;DHT22;40769;51.512;5.494;2023-07-31T08:53:15;19.10;99.90
13808;DHT22;40769;51.512;5.494;2023-07-31T08:55:43;19.20;99.90
13808;DHT22;40769;51.512;5.494;2023-07-31T08:58:10;18.80;99.90
13808;DHT22;40769;51.512;5.494;2023-07-31T09:00:38;18.40;99.90
13808;DHT22;40769;51.512;5.494;2023-07-31T09:03:18;19.30;99.90
13808;DHT22;40769;51.512;5.494;2023-07-31T09:05:46;19.40;99.90
13808;DHT22;40769;51.512;5.494;2023-07-31T09:08:14;19.40;99.90
13808;DHT22;40769;51.512;5.494;2023-07-31T09:10:44;19.40;99.90
13808;DHT22;40769;51.512;5.494;2023-07-31T09:13:15;19.40;99.90
13808;DHT22;40769;51.512;5.494;2023-07-31T09:15:43;19.50;99.90
13808;DHT22;40769;51.512;5.494;2023-07-31T09:18:10;19.50;99.90
13808;DHT22;40769;51.512;5.494;2023-07-31T09:20:36;19.70;99.90
13808;DHT22;40769;51.512;5.494;2023-07-31T09:23:11;19.60;99.90
13808;DHT22;40769;51.512;5.494;2023-07-31T09:25:38;19.60;99.90
13808;DHT22;40769;51.512;5.494;2023-07-31T09:28:06;19.60;99.90
13808;DHT22;40769;51.512;5.494;2023-07-31T09:30:48;19.70;99.90
13808;DHT22;40769;51.512;5.494;2023-07-31T09:33:14;19.70;99.90
13808;DHT22;40769;51.512;5.494;2023-07-31T09:35:39;19.80;99.90
13808;DHT22;40769;51.512;5.494;2023-07-31T09:38:13;19.80;99.90
13808;DHT22;40769;51.512;5.494;2023-07-31T09:43:25;19.80;99.90
13808;DHT22;40769;51.512;5.494;2023-07-31T09:45:55;19.90;99.90
13808;DHT22;40769;51.512;5.494;2023-07-31T09:48:23;19.90;99.90
13808;DHT22;40769;51.512;5.494;2023-07-31T09:50:52;20.00;99.90
13808;DHT22;40769;51.512;5.494;2023-07-31T09:53:18;20.00;99.90
13808;DHT22;40769;51.512;5.494;2023-07-31T09:55:44;20.00;99.90
13808;DHT22;40769;51.512;5.494;2023-07-31T09:58:11;20.00;99.90
13808;DHT22;40769;51.512;5.494;2023-07-31T10:00:37;20.10;99.90
13808;DHT22;40769;51.512;5.494;2023-07-31T10:03:08;20.10;99.90
13808;DHT22;40769;51.512;5.494;2023-07-31T10:05:43;20.20;99.90
13808;DHT22;40769;51.512;5.494;2023-07-31T10:08:14;20.20;99.90
13808;DHT22;40769;51.512;5.494;2023-07-31T10:10:44;20.30;99.90
13808;DHT22;40769;51.512;5.494;2023-07-31T10:13:11;20.30;99.90
13808;DHT22;40769;51.512;5.494;2023-07-31T10:15:36;20.30;99.90
13808;DHT22;40769;51.512;5.494;2023-07-31T10:18:02;20.30;99.90
13808;DHT22;40769;51.512;5.494;2023-07-31T10:20:31;20.40;99.90
13808;DHT22;40769;51.512;5.494;2023-07-31T10:22:57;20.40;99.90
13808;DHT22;40769;51.512;5.494;2023-07-31T10:25:26;20.50;99.90
13808;DHT22;40769;51.512;5.494;2023-07-31T10:27:53;20.50;99.90
13808;DHT22;40769;51.512;5.494;2023-07-31T10:30:22;20.60;99.90
13808;DHT22;40769;51.512;5.494;2023-07-31T10:32:48;20.60;99.90
13808;DHT22;40769;51.512;5.494;2023-07-31T10:35:16;20.80;99.90
13808;DHT22;40769;51.512;5.494;2023-07-31T10:37:43;20.70;99.90
13808;DHT22;40769;51.512;5.494;2023-07-31T10:40:16;20.90;99.90
13808;DHT22;40769;51.512;5.494;2023-07-31T10:42:57;20.90;99.90
13808;DHT22;40769;51.512;5.494;2023-07-31T10:45:31;21.00;99.90
13808;DHT22;40769;51.512;5.494;2023-07-31T10:48:01;21.00;99.90
13808;DHT22;40769;51.512;5.494;2023-07-31T10:50:28;21.00;99.90
13808;DHT22;40769;51.512;5.494;2023-07-31T10:52:57;21.10;99.90
13808;DHT22;40769;51.512;5.494;2023-07-31T10:57:56;21.10;99.90
13808;DHT22;40769;51.512;5.494;2023-07-31T11:00:27;21.20;99.90
13808;DHT22;40769;51.512;5.494;2023-07-31T11:03:09;21.20;99.90
13808;DHT22;40769;51.512;5.494;2023-07-31T11:06:01;21.20;99.90
13808;DHT22;40769;51.512;5.494;2023-07-31T11:08:31;21.30;99.90
13808;DHT22;40769;51.512;5.494;2023-07-31T11:16:19;21.50;99.90
13808;DHT22;40769;51.512;5.494;2023-07-31T11:18:46;21.60;99.90
13808;DHT22;40769;51.512;5.494;2023-07-31T11:21:17;21.70;99.90
13808;DHT22;40769;51.512;5.494;2023-07-31T11:23:51;21.70;99.90
13808;DHT22;40769;51.512;5.494;2023-07-31T11:26:18;21.70;99.90
13808;DHT22;40769;51.512;5.494;2023-07-31T11:28:47;21.70;99.90
13808;DHT22;40769;51.512;5.494;2023-07-31T11:31:13;21.80;99.90
13808;DHT22;40769;51.512;5.494;2023-07-31T11:33:42;21.80;99.90
13808;DHT22;40769;51.512;5.494;2023-07-31T11:36:16;21.80;99.90
13808;DHT22;40769;51.512;5.494;2023-07-31T11:38:42;21.80;99.90
13808;DHT22;40769;51.512;5.494;2023-07-31T11:41:08;21.90;99.90
13808;DHT22;40769;51.512;5.494;2023-07-31T11:43:34;22.00;99.90
13808;DHT22;40769;51.512;5.494;2023-07-31T11:46:02;22.20;99.90
13808;DHT22;40769;51.512;5.494;2023-07-31T11:48:34;22.30;99.90
13808;DHT22;40769;51.512;5.494;2023-07-31T11:51:03;22.50;99.90
13808;DHT22;40769;51.512;5.494;2023-07-31T11:53:33;22.60;99.90
13808;DHT22;40769;51.512;5.494;2023-07-31T11:56:01;22.70;99.90
13808;DHT22;40769;51.512;5.494;2023-07-31T11:58:30;22.80;99.90
13808;DHT22;40769;51.512;5.494;2023-07-31T12:00:57;22.90;99.90
13808;DHT22;40769;51.512;5.494;2023-07-31T12:03:23;22.90;99.90
13808;DHT22;40769;51.512;5.494;2023-07-31T12:05:49;22.90;99.90
13808;DHT22;40769;51.512;5.494;2023-07-31T12:08:15;22.90;99.90
13808;DHT22;40769;51.512;5.494;2023-07-31T12:10:41;22.90;99.90
13808;DHT22;40769;51.512;5.494;2023-07-31T12:13:11;22.90;99.90
13808;DHT22;40769;51.512;5.494;2023-07-31T12:15:42;23.00;99.90
13808;DHT22;40769;51.512;5.494;2023-07-31T12:18:10;23.00;99.90
13808;DHT22;40769;51.512;5.494;2023-07-31T12:20:41;22.90;99.90
13808;DHT22;40769;51.512;5.494;2023-07-31T12:23:22;22.90;99.90
13808;DHT22;40769;51.512;5.494;2023-07-31T12:28:38;22.80;99.90
13808;DHT22;40769;51.512;5.494;2023-07-31T12:31:06;22.80;99.90
13808;DHT22;40769;51.512;5.494;2023-07-31T12:33:34;22.70;99.90
13808;DHT22;40769;51.512;5.494;2023-07-31T12:36:02;22.70;99.90
13808;DHT22;40769;51.512;5.494;2023-07-31T12:38:31;22.70;99.90
13808;DHT22;40769;51.512;5.494;2023-07-31T12:40:56;22.70;99.90
13808;DHT22;40769;51.512;5.494;2023-07-31T12:43:22;22.70;99.90
13808;DHT22;40769;51.512;5.494;2023-07-31T12:45:48;22.70;99.90
13808;DHT22;40769;51.512;5.494;2023-07-31T12:48:14;22.60;99.90
13808;DHT22;40769;51.512;5.494;2023-07-31T12:50:40;22.60;99.90
13808;DHT22;40769;51.512;5.494;2023-07-31T12:53:05;22.50;99.90
13808;DHT22;40769;51.512;5.494;2023-07-31T12:55:32;22.40;99.90
13808;DHT22;40769;51.512;5.494;2023-07-31T12:58:01;22.30;99.90
13808;DHT22;40769;51.512;5.494;2023-07-31T13:00:26;22.50;99.90
13808;DHT22;40769;51.512;5.494;2023-07-31T13:02:52;22.20;99.90
13808;DHT22;40769;51.512;5.494;2023-07-31T13:05:18;22.20;99.90
13808;DHT22;40769;51.512;5.494;2023-07-31T13:07:46;22.20;99.90
13808;DHT22;40769;51.512;5.494;2023-07-31T13:10:11;22.20;99.90
13808;DHT22;40769;51.512;5.494;2023-07-31T13:12:37;22.20;99.90
13808;DHT22;40769;51.512;5.494;2023-07-31T13:15:07;22.30;99.90
13808;DHT22;40769;51.512;5.494;2023-07-31T13:17:33;22.20;99.90
13808;DHT22;40769;51.512;5.494;2023-07-31T13:19:59;22.30;99.90
13808;DHT22;40769;51.512;5.494;2023-07-31T13:22:25;22.30;99.90
13808;DHT22;40769;51.512;5.494;2023-07-31T13:24:51;22.40;99.90
13808;DHT22;40769;51.512;5.494;2023-07-31T13:27:16;22.40;99.90
13808;DHT22;40769;51.512;5.494;2023-07-31T13:29:44;22.50;99.90
13808;DHT22;40769;51.512;5.494;2023-07-31T13:32:10;22.50;99.90
13808;DHT22;40769;51.512;5.494;2023-07-31T13:34:36;22.60;99.90
13808;DHT22;40769;51.512;5.494;2023-07-31T13:37:02;22.60;99.90
13808;DHT22;40769;51.512;5.494;2023-07-31T13:39:28;22.50;99.90
13808;DHT22;40769;51.512;5.494;2023-07-31T13:41:54;22.50;99.90
13808;DHT22;40769;51.512;5.494;2023-07-31T13:44:20;22.50;99.90
13808;DHT22;40769;51.512;5.494;2023-07-31T13:46:46;22.50;99.90
13808;DHT22;40769;51.512;5.494;2023-07-31T13:49:11;22.90;99.90
13808;DHT22;40769;51.512;5.494;2023-07-31T13:51:37;22.40;99.90
13808;DHT22;40769;51.512;5.494;2023-07-31T13:54:04;22.30;99.90
13808;DHT22;40769;51.512;5.494;2023-07-31T13:56:31;22.20;99.90
13808;DHT22;40769;51.512;5.494;2023-07-31T13:58:57;22.20;99.90
13808;DHT22;40769;51.512;5.494;2023-07-31T14:01:23;22.10;99.90
13808;DHT22;40769;51.512;5.494;2023-07-31T14:03:49;21.90;99.90
13808;DHT22;40769;51.512;5.494;2023-07-31T14:06:15;22.00;99.90
13808;DHT22;40769;51.512;5.494;2023-07-31T14:08:41;21.80;99.90
13808;DHT22;40769;51.512;5.494;2023-07-31T14:11:06;21.80;99.90
13808;DHT22;40769;51.512;5.494;2023-07-31T14:13:32;21.70;99.90
13808;DHT22;40769;51.512;5.494;2023-07-31T14:15:58;21.70;99.90
13808;DHT22;40769;51.512;5.494;2023-07-31T14:18:23;21.60;99.90
13808;DHT22;40769;51.512;5.494;2023-07-31T14:20:49;21.50;99.90
13808;DHT22;40769;51.512;5.494;2023-07-31T14:23:15;21.40;99.90
13808;DHT22;40769;51.512;5.494;2023-07-31T14:25:41;21.30;99.90
13808;DHT22;40769;51.512;5.494;2023-07-31T14:28:09;21.30;99.90
13808;DHT22;40769;51.512;5.494;2023-07-31T14:30:35;21.20;99.90
13808;DHT22;40769;51.512;5.494;2023-07-31T14:33:01;21.20;99.90
13808;DHT22;40769;51.512;5.494;2023-07-31T14:35:27;21.10;99.90
13808;DHT22;40769;51.512;5.494;2023-07-31T14:37:53;21.10;99.90
13808;DHT22;40769;51.512;5.494;2023-07-31T14:40:19;21.10;99.90
13808;DHT22;40769;51.512;5.494;2023-07-31T14:42:44;21.10;99.90
13808;DHT22;40769;51.512;5.494;2023-07-31T14:45:11;21.20;99.90
13808;DHT22;40769;51.512;5.494;2023-07-31T14:47:37;21.20;99.90
13808;DHT22;40769;51.512;5.494;2023-07-31T14:50:04;21.20;99.90
13808;DHT22;40769;51.512;5.494;2023-07-31T14:52:29;21.10;99.90
13808;DHT22;40769;51.512;5.494;2023-07-31T14:54:55;21.10;99.90
13808;DHT22;40769;51.512;5.494;2023-07-31T14:57:21;21.10;99.90
13808;DHT22;40769;51.512;5.494;2023-07-31T14:59:47;21.10;99.90
13808;DHT22;40769;51.512;5.494;2023-07-31T15:02:15;21.10;99.90
13808;DHT22;40769;51.512;5.494;2023-07-31T15:04:41;21.10;99.90
13808;DHT22;40769;51.512;5.494;2023-07-31T15:07:06;21.10;99.90
13808;DHT22;40769;51.512;5.494;2023-07-31T15:09:32;21.10;99.90
13808;DHT22;40769;51.512;5.494;2023-07-31T15:11:58;21.10;99.90
13808;DHT22;40769;51.512;5.494;2023-07-31T15:14:24;21.20;99.90
13808;DHT22;40769;51.512;5.494;2023-07-31T15:16:50;21.10;99.90
13808;DHT22;40769;51.512;5.494;2023-07-31T15:19:16;21.10;99.90
13808;DHT22;40769;51.512;5.494;2023-07-31T15:21:45;21.00;99.90
13808;DHT22;40769;51.512;5.494;2023-07-31T15:24:11;21.00;99.90
13808;DHT22;40769;51.512;5.494;2023-07-31T15:26:39;20.90;99.90
13808;DHT22;40769;51.512;5.494;2023-07-31T15:29:07;20.90;99.90
13808;DHT22;40769;51.512;5.494;2023-07-31T15:31:45;20.90;99.90
13808;DHT22;40769;51.512;5.494;2023-07-31T15:34:12;20.80;99.90
13808;DHT22;40769;51.512;5.494;2023-07-31T15:36:38;20.70;99.90
13808;DHT22;40769;51.512;5.494;2023-07-31T15:39:04;20.70;99.90
13808;DHT22;40769;51.512;5.494;2023-07-31T15:41:30;20.60;99.90
13808;DHT22;40769;51.512;5.494;2023-07-31T15:43:56;20.50;99.90
13808;DHT22;40769;51.512;5.494;2023-07-31T15:46:21;20.40;99.90
13808;DHT22;40769;51.512;5.494;2023-07-31T15:48:50;20.40;99.90